Time;durP1;ratioP1;P1;durP2;ratioP2;P2;SDS_P1;SDS_P2;PMS_P1;PMS_P2;Temp;Humidity;BMP_temperature;BMP_pressure;BME280_temperature;BME280_humidity;BME280_pressure;Samples;Min_cycle;Max_cycle;Signal;HPM_P1;HPM_P2
2021/07/26 00:01:47;;;;;;;26.05;20.52;;;22.00;99.90;;;;;;5010450;28;20304;-75
2021/07/26 00:04:31;;;;;;;23.92;20.58;;;22.00;99.90;;;;;;5008475;28;20138;-74
2021/07/26 00:07:15;;;;;;;24.97;20.37;;;22.00;99.90;;;;;;5011114;28;20089;-74
2021/07/26 00:09:59;;;;;;;26.03;21.77;;;22.00;99.90;;;;;;4991670;28;20076;-73
2021/07/26 00:12:43;;;;;;;26.87;20.67;;;22.00;99.90;;;;;;4999630;28;20363;-75
2021/07/26 00:15:29;;;;;;;25.98;21.25;;;22.00;99.90;;;;;;5010226;28;20044;-75
2021/07/26 00:18:13;;;;;;;25.88;22.33;;;22.00;99.90;;;;;;5008755;28;20184;-75
2021/07/26 00:20:59;;;;;;;25.65;21.50;;;22.00;99.90;;;;;;5010055;28;20044;-75
2021/07/26 00:23:43;;;;;;;28.23;23.65;;;22.00;99.90;;;;;;4989580;28;20045;-75
2021/07/26 00:26:28;;;;;;;28.23;23.48;;;22.00;99.90;;;;;;4991205;28;20401;-75
2021/07/26 00:29:12;;;;;;;25.80;22.55;;;22.00;99.90;;;;;;5009544;28;20065;-75
2021/07/26 00:31:56;;;;;;;26.17;21.88;;;22.00;99.90;;;;;;5010219;28;20434;-75
2021/07/26 00:34:40;;;;;;;31.98;23.02;;;22.00;99.90;;;;;;4998592;28;20528;-76
2021/07/26 00:37:26;;;;;;;25.92;22.38;;;22.00;99.90;;;;;;5010707;28;20644;-76
2021/07/26 00:40:12;;;;;;;29.02;24.15;;;22.00;99.90;;;;;;4994150;28;20030;-75
2021/07/26 00:42:58;;;;;;;28.02;23.88;;;22.00;99.90;;;;;;5004114;28;20153;-75
2021/07/26 00:45:44;;;;;;;30.75;24.48;;;22.00;99.90;;;;;;5013553;28;20045;-75
2021/07/26 00:48:30;;;;;;;28.80;22.10;;;21.90;99.90;;;;;;5014221;28;20049;-75
2021/07/26 00:51:17;;;;;;;29.05;23.23;;;21.90;99.90;;;;;;5022024;28;20076;-74
2021/07/26 00:54:04;;;;;;;29.65;23.73;;;21.90;99.90;;;;;;5003196;28;20141;-75
2021/07/26 00:56:52;;;;;;;28.00;23.27;;;21.90;99.90;;;;;;5020196;28;20037;-76
2021/07/26 00:59:38;;;;;;;29.45;23.40;;;21.90;99.90;;;;;;5000672;28;20045;-76
2021/07/26 01:02:23;;;;;;;28.83;24.10;;;21.90;99.90;;;;;;5006749;28;20054;-74
2021/07/26 01:05:10;;;;;;;25.77;22.48;;;21.80;99.90;;;;;;5019180;28;20072;-74
2021/07/26 01:07:56;;;;;;;31.55;23.73;;;21.80;99.90;;;;;;5026832;28;20062;-75
2021/07/26 01:10:42;;;;;;;28.00;23.38;;;21.80;99.90;;;;;;5004976;28;20030;-76
2021/07/26 01:13:28;;;;;;;29.17;23.95;;;21.80;99.90;;;;;;5010515;28;20076;-76
2021/07/26 01:16:15;;;;;;;27.67;23.40;;;21.80;99.90;;;;;;5012660;28;20053;-76
2021/07/26 01:19:01;;;;;;;26.60;21.58;;;21.90;99.90;;;;;;4999576;28;20487;-76
2021/07/26 01:21:47;;;;;;;27.33;22.83;;;21.80;99.90;;;;;;5011353;28;20030;-75
2021/07/26 01:24:33;;;;;;;26.67;22.13;;;21.90;99.90;;;;;;5012110;28;20051;-75
2021/07/26 01:27:18;;;;;;;25.83;22.08;;;21.90;99.90;;;;;;5010569;28;20025;-74
2021/07/26 01:30:05;;;;;;;25.98;21.20;;;21.90;99.90;;;;;;5000866;28;20063;-75
2021/07/26 01:32:51;;;;;;;26.10;22.38;;;21.80;99.90;;;;;;5013947;28;20022;-75
2021/07/26 01:35:37;;;;;;;28.10;23.15;;;21.80;99.90;;;;;;5011884;28;20125;-76
2021/07/26 01:38:23;;;;;;;24.60;21.10;;;21.80;99.90;;;;;;5013097;28;20048;-75
2021/07/26 01:41:11;;;;;;;26.83;22.90;;;21.80;99.90;;;;;;5010724;28;20116;-77
2021/07/26 01:44:03;;;;;;;28.02;22.55;;;21.80;99.90;;;;;;5008694;28;20029;-77
2021/07/26 01:47:01;;;;;;;24.83;21.48;;;21.80;99.90;;;;;;5009813;28;20081;-76
2021/07/26 01:50:01;;;;;;;24.92;21.88;;;21.80;99.90;;;;;;5008511;28;20046;-76
2021/07/26 01:52:47;;;;;;;26.60;20.73;;;21.80;99.90;;;;;;5008884;28;20057;-77
2021/07/26 01:55:33;;;;;;;24.05;21.15;;;21.80;99.90;;;;;;5011230;28;20034;-77
2021/07/26 01:58:19;;;;;;;28.05;22.58;;;21.80;99.90;;;;;;5007204;28;20050;-78
2021/07/26 02:01:05;;;;;;;24.52;19.67;;;21.80;99.90;;;;;;5007999;28;20507;-78
2021/07/26 02:03:51;;;;;;;24.80;21.40;;;21.80;99.90;;;;;;5011118;28;20525;-76
2021/07/26 02:06:37;;;;;;;24.17;20.35;;;21.80;99.90;;;;;;5009003;28;20053;-76
2021/07/26 02:09:23;;;;;;;25.35;21.67;;;21.80;99.90;;;;;;4992723;28;20082;-77
2021/07/26 02:12:09;;;;;;;25.83;22.95;;;21.80;99.90;;;;;;5008728;28;20040;-78
2021/07/26 02:14:54;;;;;;;28.38;24.08;;;21.70;99.90;;;;;;5011447;28;20108;-78
2021/07/26 02:17:40;;;;;;;27.25;23.13;;;21.70;99.90;;;;;;5010980;28;20042;-78
2021/07/26 02:20:26;;;;;;;25.77;22.17;;;21.70;99.90;;;;;;5010921;28;20018;-78
2021/07/26 02:23:12;;;;;;;24.02;21.20;;;21.70;99.90;;;;;;4979490;28;20034;-78
2021/07/26 02:25:58;;;;;;;24.38;20.30;;;21.60;99.90;;;;;;5000128;28;20029;-78
2021/07/26 02:28:43;;;;;;;29.67;23.00;;;21.70;99.90;;;;;;4995205;28;20035;-78
2021/07/26 02:31:28;;;;;;;27.08;23.33;;;21.70;99.90;;;;;;4999335;28;20129;-74
2021/07/26 02:34:12;;;;;;;31.40;23.17;;;21.70;99.90;;;;;;4999422;28;20117;-75
2021/07/26 02:36:56;;;;;;;27.73;24.40;;;21.60;99.90;;;;;;5002562;28;20066;-74
2021/07/26 02:39:40;;;;;;;28.00;23.40;;;21.60;99.90;;;;;;5011641;28;20073;-74
2021/07/26 02:42:24;;;;;;;27.83;22.43;;;21.60;99.90;;;;;;5006249;28;20181;-75
2021/07/26 02:45:09;;;;;;;28.27;23.58;;;21.60;99.90;;;;;;5010188;28;20117;-75
2021/07/26 02:47:53;;;;;;;;;;;21.60;99.90;;;;;;5010593;28;20044;-75
2021/07/26 02:50:37;;;;;;;27.35;22.48;;;21.50;99.90;;;;;;5010761;28;19940;-75
2021/07/26 02:53:21;;;;;;;27.47;22.07;;;21.50;99.90;;;;;;5009188;28;20033;-75
2021/07/26 02:56:07;;;;;;;26.83;22.90;;;21.40;99.90;;;;;;5008739;28;20299;-74
2021/07/26 02:58:53;;;;;;;27.88;23.63;;;21.40;99.90;;;;;;5011836;28;20092;-74
2021/07/26 03:01:38;;;;;;;28.13;22.27;;;21.40;99.90;;;;;;4996141;28;20040;-75
2021/07/26 03:04:22;;;;;;;26.60;22.48;;;21.40;99.90;;;;;;5012222;28;20540;-75
2021/07/26 03:07:06;;;;;;;27.48;24.15;;;21.40;99.90;;;;;;5010422;28;20063;-74
2021/07/26 03:09:50;;;;;;;27.90;23.23;;;21.40;99.90;;;;;;5006335;28;20065;-75
2021/07/26 03:12:34;;;;;;;26.30;23.00;;;21.50;99.90;;;;;;5008085;28;20045;-74
2021/07/26 03:15:19;;;;;;;26.42;23.15;;;21.50;99.90;;;;;;5010020;28;20099;-77
2021/07/26 03:18:03;;;;;;;28.52;24.02;;;21.50;99.90;;;;;;5011216;28;20053;-73
2021/07/26 03:20:48;;;;;;;27.20;24.27;;;21.50;99.90;;;;;;5010119;28;20044;-77
2021/07/26 03:23:33;;;;;;;27.88;22.88;;;21.50;99.90;;;;;;5011966;28;20045;-76
2021/07/26 03:26:17;;;;;;;25.02;22.35;;;21.50;99.90;;;;;;4997559;28;20041;-78
2021/07/26 03:29:00;;;;;;;28.03;21.77;;;21.50;99.90;;;;;;5011190;28;20036;-77
2021/07/26 03:31:45;;;;;;;24.67;21.10;;;21.50;99.90;;;;;;5010397;28;20089;-79
2021/07/26 03:34:29;;;;;;;31.03;24.00;;;21.60;99.90;;;;;;5011417;28;20284;-78
2021/07/26 03:37:13;;;;;;;29.23;23.70;;;21.60;99.90;;;;;;5010710;28;20296;-78
2021/07/26 03:39:56;;;;;;;27.33;24.00;;;21.50;99.90;;;;;;5010633;28;20147;-79
2021/07/26 03:42:42;;;;;;;24.92;22.00;;;21.60;99.90;;;;;;4995257;28;20465;-76
2021/07/26 03:45:26;;;;;;;27.80;22.77;;;21.60;99.90;;;;;;5008884;28;20509;-77
2021/07/26 03:48:10;;;;;;;26.52;23.63;;;21.60;99.90;;;;;;5010245;28;20109;-76
2021/07/26 03:50:54;;;;;;;27.05;23.98;;;21.60;99.90;;;;;;5010084;28;20072;-76
2021/07/26 03:53:38;;;;;;;28.10;24.07;;;21.50;99.90;;;;;;5010892;28;20397;-76
2021/07/26 03:56:22;;;;;;;27.00;22.95;;;21.60;99.90;;;;;;5010417;28;20848;-76
2021/07/26 03:59:06;;;;;;;29.10;24.30;;;21.60;99.90;;;;;;4995761;28;20524;-76
2021/07/26 04:01:55;;;;;;;26.92;23.58;;;21.60;99.90;;;;;;4999723;28;20280;-75
2021/07/26 04:04:39;;;;;;;26.40;23.35;;;21.50;99.90;;;;;;5006461;28;20092;-75
2021/07/26 04:07:25;;;;;;;28.45;25.40;;;21.60;99.90;;;;;;4996052;28;20053;-75
2021/07/26 04:10:10;;;;;;;28.80;25.25;;;21.60;99.90;;;;;;5013315;28;20096;-75
2021/07/26 04:12:55;;;;;;;29.13;25.25;;;21.60;99.90;;;;;;5012033;28;20128;-75
2021/07/26 04:15:40;;;;;;;27.77;23.45;;;21.50;99.90;;;;;;4998764;28;20438;-75
2021/07/26 04:18:25;;;;;;;25.50;22.80;;;21.60;99.90;;;;;;4995088;28;20529;-76
2021/07/26 04:21:10;;;;;;;28.63;24.10;;;21.60;99.90;;;;;;5012925;28;20073;-75
2021/07/26 04:23:54;;;;;;;27.00;23.50;;;21.70;99.90;;;;;;5013605;28;20076;-75
2021/07/26 04:26:38;;;;;;;29.85;23.67;;;21.70;99.90;;;;;;5013859;28;20558;-74
2021/07/26 04:29:22;;;;;;;28.37;25.00;;;21.70;99.90;;;;;;5009457;28;20037;-76
2021/07/26 04:32:10;;;;;;;27.03;24.10;;;21.70;99.90;;;;;;5004133;28;20292;-77
2021/07/26 04:34:58;;;;;;;29.75;23.48;;;21.80;99.90;;;;;;5014114;28;20339;-79
2021/07/26 04:37:44;;;;;;;26.27;23.42;;;21.80;99.90;;;;;;5010959;28;20046;-74
2021/07/26 04:40:30;;;;;;;25.30;21.10;;;21.80;99.90;;;;;;4997513;28;20096;-74
2021/07/26 04:43:16;;;;;;;27.50;23.48;;;21.90;99.90;;;;;;5008048;28;20030;-76
2021/07/26 04:46:02;;;;;;;26.08;23.17;;;21.90;99.90;;;;;;5009725;28;20096;-75
2021/07/26 04:48:48;;;;;;;24.42;21.58;;;22.00;99.90;;;;;;4994310;28;20125;-80
2021/07/26 04:51:33;;;;;;;24.17;21.58;;;22.00;99.90;;;;;;5000955;28;20034;-76
2021/07/26 04:54:19;;;;;;;34.80;23.77;;;22.00;99.90;;;;;;5013166;28;20014;-74
2021/07/26 04:57:05;;;;;;;28.77;24.42;;;22.10;99.90;;;;;;5010552;28;20121;-73
2021/07/26 04:59:51;;;;;;;28.25;25.17;;;22.10;99.90;;;;;;5015920;28;20034;-73
2021/07/26 05:02:39;;;;;;;27.10;23.48;;;22.10;99.90;;;;;;5008832;28;20445;-73
2021/07/26 05:05:24;;;;;;;24.67;21.50;;;22.20;99.90;;;;;;5012130;28;20405;-74
2021/07/26 05:08:10;;;;;;;26.45;21.55;;;22.30;99.90;;;;;;4992956;28;20042;-73
2021/07/26 05:10:56;;;;;;;30.17;23.50;;;22.30;99.90;;;;;;4996223;28;20030;-81
2021/07/26 05:13:42;;;;;;;24.88;21.35;;;22.40;99.90;;;;;;4995064;28;20108;-76
2021/07/26 05:16:28;;;;;;;25.73;22.45;;;22.50;99.90;;;;;;4992097;28;20026;-79
2021/07/26 05:19:14;;;;;;;28.60;24.90;;;22.60;99.90;;;;;;4995238;28;20137;-79
2021/07/26 05:21:59;;;;;;;28.38;24.10;;;22.60;99.90;;;;;;5000015;28;20030;-78
2021/07/26 05:24:46;;;;;;;29.25;23.63;;;22.70;99.90;;;;;;4999466;28;20026;-79
2021/07/26 05:27:32;;;;;;;26.23;22.85;;;22.70;99.90;;;;;;5004867;28;20030;-78
2021/07/26 05:30:18;;;;;;;26.10;22.17;;;22.80;99.90;;;;;;5009786;28;20034;-78
2021/07/26 05:33:03;;;;;;;26.33;22.73;;;22.90;99.90;;;;;;4998390;28;20061;-77
2021/07/26 05:35:49;;;;;;;27.27;23.95;;;23.00;99.90;;;;;;5010494;28;20031;-78
2021/07/26 05:38:35;;;;;;;28.95;24.70;;;23.00;99.90;;;;;;4995327;28;20074;-79
2021/07/26 05:41:21;;;;;;;27.35;24.35;;;23.10;99.90;;;;;;4999260;28;20037;-78
2021/07/26 05:44:07;;;;;;;24.55;20.85;;;23.10;99.90;;;;;;5011542;28;20037;-79
2021/07/26 05:46:52;;;;;;;26.63;23.83;;;23.20;99.90;;;;;;5010439;28;20364;-80
2021/07/26 05:49:38;;;;;;;26.95;24.15;;;23.20;99.90;;;;;;5013120;28;20057;-86
2021/07/26 05:52:24;;;;;;;28.60;24.33;;;23.20;99.90;;;;;;5013206;28;20116;-77
2021/07/26 05:55:10;;;;;;;29.92;24.75;;;23.20;99.90;;;;;;5012305;28;20093;-78
2021/07/26 05:57:57;;;;;;;30.13;25.83;;;23.30;99.90;;;;;;4994748;28;20182;-77
2021/07/26 06:00:57;;;;;;;28.08;24.77;;;23.30;99.90;;;;;;4996759;28;20690;-79
2021/07/26 06:03:42;;;;;;;28.67;25.48;;;23.30;99.90;;;;;;5003505;28;20375;-79
2021/07/26 06:06:28;;;;;;;28.42;25.40;;;23.20;99.90;;;;;;4997513;28;20161;-79
2021/07/26 06:09:15;;;;;;;31.13;27.23;;;23.20;99.90;;;;;;5015159;28;20041;-77
2021/07/26 06:12:01;;;;;;;34.47;25.30;;;23.20;99.90;;;;;;5011403;28;20041;-79
2021/07/26 06:14:47;;;;;;;29.35;26.25;;;23.20;99.90;;;;;;5009083;28;20031;-75
2021/07/26 06:17:32;;;;;;;30.73;25.10;;;23.30;99.90;;;;;;5002834;28;20494;-79
2021/07/26 06:20:18;;;;;;;30.85;26.10;;;23.30;99.90;;;;;;5001483;28;20045;-79
2021/07/26 06:23:04;;;;;;;29.40;25.90;;;23.40;99.90;;;;;;5014453;28;20034;-79
2021/07/26 06:25:50;;;;;;;28.02;25.02;;;23.50;99.90;;;;;;5000923;28;20098;-78
2021/07/26 06:28:36;;;;;;;27.55;24.63;;;23.60;99.90;;;;;;5009444;28;20026;-79
2021/07/26 06:31:18;;;;;;;29.58;26.38;;;23.60;99.90;;;;;;5002382;28;20129;-78
2021/07/26 06:34:04;;;;;;;30.67;26.35;;;23.70;99.90;;;;;;5010086;28;20113;-78
2021/07/26 06:36:48;;;;;;;27.08;23.67;;;23.80;99.90;;;;;;4988294;28;20081;-77
2021/07/26 06:39:33;;;;;;;30.13;26.15;;;23.90;99.90;;;;;;5008734;28;20108;-78
2021/07/26 06:42:18;;;;;;;33.10;25.73;;;24.00;99.90;;;;;;5008198;28;20036;-78
2021/07/26 06:45:03;;;;;;;30.02;24.75;;;24.10;99.90;;;;;;5004247;28;20072;-77
2021/07/26 06:47:49;;;;;;;26.13;22.45;;;24.20;99.90;;;;;;4987439;28;20085;-77
2021/07/26 06:50:33;;;;;;;27.33;23.45;;;24.20;99.90;;;;;;5008509;28;20180;-77
2021/07/26 06:53:19;;;;;;;29.40;22.95;;;24.30;99.90;;;;;;4997311;28;20393;-77
2021/07/26 06:56:07;;;;;;;24.48;21.20;;;24.40;99.90;;;;;;5006670;28;20508;-78
2021/07/26 06:58:51;;;;;;;24.58;21.88;;;24.50;99.90;;;;;;5008378;28;20045;-77
2021/07/26 07:01:35;;;;;;;26.15;21.52;;;24.50;99.90;;;;;;4995944;28;20092;-77
2021/07/26 07:04:20;;;;;;;23.05;20.02;;;24.50;99.90;;;;;;5004252;28;20096;-77
2021/07/26 07:07:05;;;;;;;26.02;23.25;;;24.60;99.90;;;;;;5010357;28;20040;-78
2021/07/26 07:09:53;;;;;;;31.65;23.60;;;24.70;99.90;;;;;;5006115;28;20059;-77
2021/07/26 07:12:36;;;;;;;24.73;21.42;;;24.80;99.90;;;;;;5008716;28;20065;-78
2021/07/26 07:15:23;;;;;;;23.63;20.92;;;24.80;99.90;;;;;;4992052;28;20044;-77
2021/07/26 07:18:07;;;;;;;22.80;18.10;;;24.90;99.90;;;;;;5010435;28;20465;-76
2021/07/26 07:20:51;;;;;;;21.92;19.33;;;25.00;99.90;;;;;;5013787;28;20037;-72
2021/07/26 07:23:35;;;;;;;23.38;20.88;;;25.10;99.90;;;;;;5009978;28;20047;-75
2021/07/26 07:26:21;;;;;;;22.60;18.90;;;25.10;99.90;;;;;;5008008;28;20095;-75
2021/07/26 07:29:05;;;;;;;24.08;19.98;;;25.20;99.90;;;;;;4995774;28;20088;-75
2021/07/26 07:31:49;;;;;;;28.73;19.92;;;25.20;99.90;;;;;;5011007;28;20398;-77
2021/07/26 07:34:34;;;;;;;25.73;20.02;;;25.30;99.90;;;;;;5003049;28;20505;-76
2021/07/26 07:37:18;;;;;;;21.00;18.65;;;25.40;99.90;;;;;;5007667;28;20044;-76
2021/07/26 07:40:02;;;;;;;22.80;19.90;;;25.40;99.90;;;;;;5009112;28;20402;-77
2021/07/26 07:42:46;;;;;;;23.70;19.48;;;25.50;99.90;;;;;;5007673;28;20037;-77
2021/07/26 07:45:31;;;;;;;21.80;17.00;;;25.60;99.90;;;;;;5013318;28;20793;-73
2021/07/26 07:48:18;;;;;;;20.98;18.58;;;25.70;99.90;;;;;;4995925;28;20107;-76
2021/07/26 07:51:04;;;;;;;20.80;17.98;;;25.70;99.90;;;;;;5011768;28;20029;-74
2021/07/26 07:53:51;;;;;;;21.35;17.58;;;25.70;99.90;;;;;;5008035;28;20074;-73
2021/07/26 07:56:35;;;;;;;19.52;16.10;;;25.80;99.90;;;;;;5009910;28;20134;-73
2021/07/26 07:59:19;;;;;;;17.27;14.63;;;25.80;99.90;;;;;;5011470;28;20100;-73
2021/07/26 08:02:06;;;;;;;18.38;15.40;;;25.90;99.60;;;;;;5006643;28;20032;-73
2021/07/26 08:04:50;;;;;;;18.60;15.13;;;26.00;99.10;;;;;;5003290;28;20449;-74
2021/07/26 08:07:34;;;;;;;;;;;26.00;98.70;;;;;;5010118;28;20096;-73
2021/07/26 08:10:19;;;;;;;17.03;13.80;;;26.00;99.30;;;;;;5012958;28;19964;-73
2021/07/26 08:13:03;;;;;;;17.60;14.48;;;26.00;98.10;;;;;;5007644;28;20036;-75
2021/07/26 08:15:52;;;;;;;15.85;13.88;;;26.00;97.90;;;;;;5011776;28;20089;-75
2021/07/26 08:18:36;;;;;;;16.80;14.55;;;26.10;97.40;;;;;;5011973;28;20057;-75
2021/07/26 08:21:21;;;;;;;17.00;14.65;;;26.10;97.60;;;;;;5009299;28;20097;-75
2021/07/26 08:24:05;;;;;;;16.98;15.18;;;26.20;97.80;;;;;;5009186;28;20134;-73
2021/07/26 08:26:49;;;;;;;18.88;14.35;;;26.20;98.20;;;;;;5009408;28;20045;-74
2021/07/26 08:29:34;;;;;;;;;;;26.30;98.60;;;;;;5012239;28;20135;-74
2021/07/26 08:32:03;;;;;;;15.00;13.27;;;26.40;98.60;;;;;;5005983;28;19917;-74
2021/07/26 08:34:47;;;;;;;;;;;26.40;98.30;;;;;;5011967;28;20041;-75
2021/07/26 08:37:33;;;;;;;14.55;12.70;;;26.50;98.50;;;;;;5011588;28;19917;-74
2021/07/26 08:40:21;;;;;;;20.13;13.63;;;26.60;98.60;;;;;;4997368;28;20041;-76
2021/07/26 08:43:11;;;;;;;16.65;14.85;;;26.60;98.70;;;;;;5011053;28;20049;-74
2021/07/26 08:45:58;;;;;;;15.85;13.40;;;26.70;98.90;;;;;;5007988;28;20061;-74
2021/07/26 08:48:46;;;;;;;15.27;13.02;;;26.90;98.80;;;;;;5010844;28;20058;-73
2021/07/26 08:51:33;;;;;;;16.98;12.80;;;27.00;98.20;;;;;;5009893;28;20505;-74
2021/07/26 08:54:20;;;;;;;18.33;14.07;;;27.20;96.70;;;;;;5010158;28;20034;-76
2021/07/26 08:57:06;;;;;;;15.07;12.48;;;27.30;98.10;;;;;;5004715;28;20034;-77
2021/07/26 08:59:53;;;;;;;13.90;12.07;;;27.40;97.00;;;;;;4997588;28;20163;-73
2021/07/26 09:02:39;;;;;;;14.50;12.85;;;27.50;96.40;;;;;;5011989;28;20030;-74
2021/07/26 09:05:24;;;;;;;15.23;13.10;;;27.60;97.20;;;;;;5013282;28;20113;-74
2021/07/26 09:08:10;;;;;;;14.07;11.65;;;27.60;96.20;;;;;;5000867;28;20032;-76
2021/07/26 09:11:01;;;;;;;14.68;11.63;;;27.70;95.80;;;;;;5010412;28;20031;-73
2021/07/26 09:13:47;;;;;;;14.57;12.18;;;27.70;95.00;;;;;;5012689;28;20109;-77
2021/07/26 09:16:33;;;;;;;12.38;11.07;;;27.80;95.30;;;;;;5004002;28;20030;-73
2021/07/26 09:19:19;;;;;;;12.75;11.35;;;27.80;95.60;;;;;;5011736;28;20038;-73
2021/07/26 09:22:04;;;;;;;13.13;11.23;;;27.90;94.80;;;;;;5001074;28;20026;-73
2021/07/26 09:24:50;;;;;;;12.25;11.05;;;27.90;94.30;;;;;;5008079;28;20068;-72
2021/07/26 09:27:36;;;;;;;14.48;11.93;;;28.00;95.40;;;;;;5005347;28;20141;-72
2021/07/26 09:30:22;;;;;;;14.77;13.27;;;28.00;94.50;;;;;;5009931;28;20061;-72
2021/07/26 09:33:29;;;;;;;11.75;10.45;;;28.10;94.60;;;;;;5010658;28;20053;-72
2021/07/26 09:36:21;;;;;;;14.50;12.18;;;28.20;93.20;;;;;;5002446;28;20026;-72
2021/07/26 09:39:22;;;;;;;11.70;10.38;;;28.20;94.80;;;;;;5000497;28;20958;-72
2021/07/26 09:42:24;;;;;;;12.88;10.50;;;28.10;94.20;;;;;;5006774;28;20030;-72
2021/07/26 09:45:22;;;;;;;10.90;9.73;;;28.20;94.20;;;;;;5009742;28;22589;-72
2021/07/26 09:48:13;;;;;;;13.93;9.30;;;28.10;93.10;;;;;;4999353;28;20070;-71
2021/07/26 09:51:03;;;;;;;12.38;10.02;;;28.20;92.10;;;;;;5002385;28;20505;-71
2021/07/26 09:53:50;;;;;;;12.85;10.07;;;28.10;92.50;;;;;;5010216;28;20088;-72
2021/07/26 09:56:36;;;;;;;12.43;9.57;;;28.10;91.70;;;;;;5007031;28;20040;-71
2021/07/26 09:59:24;;;;;;;14.00;9.98;;;28.10;91.70;;;;;;5009013;28;20479;-71
2021/07/26 10:02:14;;;;;;;10.63;9.10;;;28.20;91.70;;;;;;5005580;28;20021;-71
2021/07/26 10:05:03;;;;;;;12.48;10.10;;;28.20;91.60;;;;;;5009387;28;20030;-70
2021/07/26 10:07:52;;;;;;;10.55;9.38;;;28.20;91.50;;;;;;5003863;28;20057;-69
2021/07/26 10:10:40;;;;;;;12.80;9.77;;;28.20;91.40;;;;;;5003346;28;20371;-72
2021/07/26 10:13:26;;;;;;;9.98;8.48;;;28.20;90.90;;;;;;5010349;28;20084;-73
2021/07/26 10:16:14;;;;;;;14.85;8.32;;;28.30;90.40;;;;;;5009574;28;20356;-70
2021/07/26 10:19:01;;;;;;;9.77;8.25;;;28.30;90.40;;;;;;5004628;28;20096;-70
2021/07/26 10:21:47;;;;;;;9.85;7.90;;;28.30;89.00;;;;;;5001700;28;20398;-71
2021/07/26 10:24:58;;;;;;;9.25;8.07;;;28.40;89.10;;;;;;5009016;28;20509;-71
2021/07/26 10:27:45;;;;;;;10.57;8.38;;;28.40;89.80;;;;;;5009737;28;20096;-70
2021/07/26 10:30:36;;;;;;;11.20;8.95;;;28.40;88.80;;;;;;5000458;28;20022;-69
2021/07/26 10:33:21;;;;;;;9.98;8.45;;;28.40;90.10;;;;;;5010868;28;20057;-70
2021/07/26 10:36:06;;;;;;;9.68;8.57;;;28.50;87.10;;;;;;5009471;28;20604;-70
2021/07/26 10:38:49;;;;;;;8.65;7.47;;;28.50;87.20;;;;;;5009237;28;20133;-72
2021/07/26 10:41:43;;;;;;;8.50;7.30;;;28.60;87.40;;;;;;5005211;28;20518;-70
2021/07/26 10:44:27;;;;;;;10.25;7.45;;;28.60;86.70;;;;;;5010070;28;20110;-70
2021/07/26 10:47:12;;;;;;;9.35;7.88;;;28.70;86.10;;;;;;5002718;28;20032;-71
2021/07/26 10:50:12;;;;;;;8.98;7.30;;;28.70;87.20;;;;;;5008836;28;20052;-71
2021/07/26 10:52:56;;;;;;;8.88;6.72;;;28.90;85.40;;;;;;5009585;28;20041;-72
2021/07/26 10:56:03;;;;;;;10.70;7.63;;;28.90;86.20;;;;;;5006612;28;20505;-71
2021/07/26 10:58:48;;;;;;;9.68;6.80;;;28.90;86.80;;;;;;5008953;28;20145;-71
2021/07/26 11:01:32;;;;;;;9.98;7.78;;;28.90;85.90;;;;;;5016446;28;20572;-71
2021/07/26 11:04:35;;;;;;;10.10;6.90;;;28.90;85.80;;;;;;5002390;28;20036;-71
2021/07/26 11:07:27;;;;;;;8.07;6.47;;;28.90;85.60;;;;;;4989017;28;20036;-71
2021/07/26 11:10:50;;;;;;;11.43;7.85;;;29.00;84.50;;;;;;5007953;28;20032;-72
2021/07/26 11:13:46;;;;;;;7.45;6.22;;;29.00;83.90;;;;;;5005367;28;20101;-71
2021/07/26 11:16:49;;;;;;;7.55;6.75;;;29.10;82.80;;;;;;5001222;28;20100;-70
2021/07/26 11:19:43;;;;;;;8.57;6.60;;;29.10;81.80;;;;;;5008726;28;20053;-73
2021/07/26 11:22:29;;;;;;;8.57;6.20;;;29.10;81.40;;;;;;5013883;28;20048;-72
2021/07/26 11:25:19;;;;;;;7.20;6.13;;;29.20;81.00;;;;;;5015914;28;20959;-73
2021/07/26 11:28:05;;;;;;;6.15;5.55;;;29.30;79.40;;;;;;5007631;28;20235;-73
2021/07/26 11:30:50;;;;;;;8.25;6.13;;;29.40;78.50;;;;;;4992625;28;20048;-73
2021/07/26 11:33:34;;;;;;;7.32;6.13;;;29.40;79.40;;;;;;5004713;28;20040;-72
2021/07/26 11:36:19;;;;;;;6.45;5.68;;;29.50;78.00;;;;;;5008658;28;20405;-73
2021/07/26 11:39:06;;;;;;;7.90;6.18;;;29.60;79.30;;;;;;5011184;28;20044;-74
2021/07/26 11:41:51;;;;;;;6.63;5.32;;;29.60;77.90;;;;;;5009615;28;20035;-74
2021/07/26 11:44:35;;;;;;;9.07;5.68;;;29.70;77.60;;;;;;5013618;28;20037;-71
2021/07/26 11:47:40;;;;;;;6.78;5.28;;;29.80;76.60;;;;;;5009423;28;20040;-72
2021/07/26 11:50:38;;;;;;;;;;;29.90;76.10;;;;;;4979645;28;20049;-71
2021/07/26 11:53:30;;;;;;;6.28;5.68;;;30.00;78.70;;;;;;4987491;28;19917;-71
2021/07/26 11:56:18;;;;;;;8.02;5.72;;;30.20;75.70;;;;;;4987306;28;20029;-71
2021/07/26 11:59:20;;;;;;;7.47;6.13;;;30.20;74.70;;;;;;4989411;28;20041;-71
2021/07/26 12:02:14;;;;;;;8.02;5.55;;;30.20;74.50;;;;;;4992735;28;20054;-69
2021/07/26 12:05:03;;;;;;;5.82;5.22;;;30.20;72.80;;;;;;4988610;28;20029;-70
2021/07/26 12:07:47;;;;;;;7.35;5.25;;;30.20;73.60;;;;;;4993283;28;20037;-69
2021/07/26 12:10:36;;;;;;;8.50;5.78;;;30.20;72.00;;;;;;4991755;28;20550;-70
2021/07/26 12:13:22;;;;;;;7.57;5.70;;;30.30;72.80;;;;;;4980275;28;20061;-69
2021/07/26 12:16:12;;;;;;;8.45;5.82;;;30.40;72.20;;;;;;4982849;28;20037;-69
2021/07/26 12:19:12;;;;;;;7.82;5.38;;;30.50;73.80;;;;;;4990016;28;20122;-69
2021/07/26 12:22:11;;;;;;;5.95;5.10;;;30.60;73.20;;;;;;4986602;28;20514;-70
2021/07/26 12:24:59;;;;;;;6.50;5.72;;;30.70;71.80;;;;;;4975480;28;20042;-69
2021/07/26 12:27:54;;;;;;;7.88;6.00;;;30.80;73.20;;;;;;4993353;28;20061;-69
2021/07/26 12:30:43;;;;;;;7.30;5.68;;;30.90;71.90;;;;;;4992294;28;20065;-69
2021/07/26 12:33:31;;;;;;;7.00;6.30;;;30.90;71.00;;;;;;4975871;28;20031;-69
2021/07/26 12:36:17;;;;;;;6.68;5.97;;;31.00;70.40;;;;;;4980144;28;20026;-71
2021/07/26 12:39:05;;;;;;;8.90;5.70;;;31.00;69.80;;;;;;4995085;28;20031;-70
2021/07/26 12:41:51;;;;;;;8.27;6.07;;;31.00;68.60;;;;;;4994201;28;20498;-70
2021/07/26 12:44:37;;;;;;;5.88;5.05;;;31.10;70.20;;;;;;4994493;28;20074;-69
2021/07/26 12:47:30;;;;;;;6.10;5.43;;;31.20;69.60;;;;;;4994580;28;20069;-70
2021/07/26 12:50:16;;;;;;;5.75;4.95;;;31.20;69.20;;;;;;5012583;28;20042;-69
2021/07/26 12:53:02;;;;;;;6.63;5.32;;;31.30;69.00;;;;;;5014013;28;20037;-70
2021/07/26 12:55:50;;;;;;;6.50;5.45;;;31.30;67.00;;;;;;5010806;28;20550;-70
2021/07/26 12:58:36;;;;;;;6.65;5.55;;;31.20;67.40;;;;;;5005840;28;20042;-70
2021/07/26 13:01:22;;;;;;;7.60;6.57;;;31.20;68.40;;;;;;4991005;28;20018;-70
2021/07/26 13:04:10;;;;;;;7.40;6.32;;;31.10;68.20;;;;;;5014149;28;20030;-70
2021/07/26 13:06:55;;;;;;;7.72;6.32;;;31.10;68.20;;;;;;5012124;28;20033;-70
2021/07/26 13:09:41;;;;;;;8.80;5.70;;;31.10;67.80;;;;;;5013241;28;20173;-70
2021/07/26 13:12:27;;;;;;;8.05;5.97;;;31.20;67.40;;;;;;5012142;28;20065;-70
2021/07/26 13:15:13;;;;;;;7.75;6.30;;;31.30;67.10;;;;;;5012606;28;20093;-70
2021/07/26 13:17:59;;;;;;;8.70;5.82;;;31.40;68.70;;;;;;5013097;28;20042;-71
2021/07/26 13:20:45;;;;;;;8.05;6.57;;;31.40;67.30;;;;;;5010862;28;20025;-70
2021/07/26 13:23:31;;;;;;;9.63;5.57;;;31.40;68.20;;;;;;5013838;28;20107;-70
2021/07/26 13:26:18;;;;;;;6.15;4.78;;;31.40;65.90;;;;;;5006039;28;20018;-70
2021/07/26 13:29:04;;;;;;;10.40;5.97;;;31.40;63.90;;;;;;4998182;28;20446;-70
2021/07/26 13:31:50;;;;;;;6.78;5.10;;;31.50;64.50;;;;;;5011414;28;20367;-70
2021/07/26 13:34:36;;;;;;;7.50;5.82;;;31.60;64.80;;;;;;4997511;28;20487;-70
2021/07/26 13:37:22;;;;;;;6.45;5.15;;;31.60;65.80;;;;;;5011099;28;20101;-70
2021/07/26 13:40:11;;;;;;;15.55;5.80;;;31.60;64.00;;;;;;5011885;28;20033;-70
2021/07/26 13:42:57;;;;;;;5.70;5.18;;;31.70;64.10;;;;;;5012700;28;20034;-70
2021/07/26 13:45:42;;;;;;;5.85;4.88;;;31.80;64.30;;;;;;5011542;28;20386;-70
2021/07/26 13:48:28;;;;;;;6.57;5.68;;;31.90;64.00;;;;;;5010632;28;20060;-70
2021/07/26 13:51:14;;;;;;;6.68;5.68;;;32.00;64.20;;;;;;5010891;28;20034;-70
2021/07/26 13:54:00;;;;;;;6.47;5.05;;;32.10;64.20;;;;;;5013369;28;20108;-70
2021/07/26 13:56:47;;;;;;;6.97;5.03;;;32.00;63.40;;;;;;5011537;28;20426;-70
2021/07/26 13:59:33;;;;;;;5.55;4.82;;;31.90;63.60;;;;;;5011523;28;20038;-70
2021/07/26 14:02:20;;;;;;;6.55;5.18;;;31.80;63.50;;;;;;5010897;28;20029;-70
2021/07/26 14:05:06;;;;;;;5.30;4.60;;;31.90;62.40;;;;;;5010067;28;20034;-70
2021/07/26 14:07:52;;;;;;;6.47;5.15;;;32.00;61.30;;;;;;5011152;28;20508;-69
2021/07/26 14:10:38;;;;;;;6.30;5.22;;;32.10;61.80;;;;;;5010793;28;20022;-70
2021/07/26 14:13:24;;;;;;;4.57;4.05;;;32.20;60.90;;;;;;4993993;28;20032;-70